Texas Logo

Garland, TX Single Family Real Estate Listings

419 Total Real Estate Listings * Click on table heading to sort
Date Posted Property Type Style Address Price Living Area Lot Size Price/Sq Ft.
2017-03-28 Single Family Traditional 730 Ridgewood Drive Garland, TX 75041 $128,500 1,285 sq. ft. 8,276 sq. ft. $100
2017-03-28 Single Family Traditional 3729 O Henry Drive Garland, TX 75042 $149,900 1,508 sq. ft. 7,405 sq. ft. $99
2017-03-28 Single Family Ranch; Traditional 4125 Aldenham Drive Garland, TX 75043 $329,000 3,648 sq. ft. 8,276 sq. ft. $90
2017-03-27 Single Family Traditional 410 Celeste Drive Garland, TX 75041 $135,000 1,132 sq. ft. 9,148 sq. ft. $119
2017-03-27 Single Family 3317 Rough Creek Garland, TX 75040 $374,040 2,977 sq. ft. 10,890 sq. ft. $126
2017-03-27 Single Family 1509 Cypress Garden Garland, TX 75040 $416,579 3,355 sq. ft. 10,890 sq. ft. $124
2017-03-27 Single Family 3313 Rough Creek Garland, TX 75040 $473,751 3,217 sq. ft. 10,890 sq. ft. $147
2017-03-27 Single Family 1521 Cypress Garden Lane Garland, TX 75040 $338,737 2,316 sq. ft. 10,890 sq. ft. $146
2017-03-27 Single Family 3138 Grand Bay Drive Garland, TX 75040 $403,370 3,255 sq. ft. 10,890 sq. ft. $124
2017-03-27 Single Family Traditional 434 Woodmere Drive Garland, TX 75043 $150,000 1,966 sq. ft. 7,841 sq. ft. $76
2017-03-27 Single Family Traditional 1901 Meadowview Drive Garland, TX 75043 $260,000 2,510 sq. ft. 10,019 sq. ft. $104
2017-03-26 Single Family Traditional 334 Marriott Lane Garland, TX 75040 $239,900 1,951 sq. ft. 7,405 sq. ft. $123
2017-03-26 Single Family Traditional 4422 Mayflower Drive Garland, TX 75043 $200,000 1,524 sq. ft. 9,148 sq. ft. $131
2017-03-26 Single Family Traditional 2008 Peakwood Drive Garland, TX 75044 $155,000 1,584 sq. ft. 4,356 sq. ft. $98
2017-03-25 Single Family Traditional 2901 Walnut Street Garland, TX 75042 $149,947 1,468 sq. ft. 8,712 sq. ft. $102
2017-03-25 Single Family Traditional 5305 Heather Glen Drive Garland, TX 75043 $183,500 1,900 sq. ft. 6,970 sq. ft. $97
2017-03-25 Single Family Traditional 3939 Upland Way Garland, TX 75042 $230,000 1,940 sq. ft. 5,227 sq. ft. $119
2017-03-25 Single Family Traditional 2005 Meadowview Drive Garland, TX 75043 $214,900 1,719 sq. ft. 10,890 sq. ft. $125
2017-03-24 Single Family Traditional 2733 Serena Court Garland, TX 75040 $299,900 2,140 sq. ft. 11,761 sq. ft. $140
2017-03-24 Single Family Contemporary/Modern; Traditional 2917 Dove Meadow Drive Garland, TX 75043 $209,000 1,795 sq. ft. 7,841 sq. ft. $116
2017-03-24 Single Family Traditional 3117 Marydale Road Garland, TX 75041 $179,900 2,007 sq. ft. 8,712 sq. ft. $90
2017-03-24 Single Family Traditional 2005 Highwood Drive Garland, TX 75041 $145,000 1,244 sq. ft. 7,405 sq. ft. $117
2017-03-24 Single Family Traditional 5225 Pensacola Drive Garland, TX 75043 $185,000 1,968 sq. ft. 6,970 sq. ft. $94
2017-03-24 Single Family Traditional 7026 Lo Chalmers Lane Garland, TX 75043 $195,000 1,928 sq. ft. 6,970 sq. ft. $101
2017-03-24 Single Family Traditional 6006 Ponderosa Trail Court Garland, TX 75043 $225,000 2,043 sq. ft. 10,890 sq. ft. $110
2017-03-24 Single Family Traditional 2601 Madrid Drive Garland, TX 75040 $184,900 1,671 sq. ft. 10,454 sq. ft. $111
2017-03-24 Single Family 3110 Bluffview Drive Garland, TX 75043 $345,000 2,905 sq. ft. 10,019 sq. ft. $119
2017-03-24 Single Family Traditional 1134 Sicily Drive Garland, TX 75040 $215,000 2,284 sq. ft. 6,970 sq. ft. $94
2017-03-24 Single Family Traditional 2001 Robin Lane Garland, TX 75041 $180,000 2,136 sq. ft. 11,761 sq. ft. $84
2017-03-24 Single Family 2210 Richoak Drive Garland, TX 75044 $199,900 1,919 sq. ft. 5,227 sq. ft. $104
2017-03-24 Single Family Traditional 129 Rio Grande Street Garland, TX 75041 $142,900 1,245 sq. ft. 7,841 sq. ft. $115
2017-03-24 Single Family 622 Bradfield Drive Garland, TX 75042 $185,500 2,816 sq. ft. 7,841 sq. ft. $66
2017-03-24 Single Family Traditional 2710 Big Springs Road Garland, TX 75044 $195,000 1,869 sq. ft. 7,405 sq. ft. $104
2017-03-23 Single Family Traditional 2706 Fairfax Drive Garland, TX 75041 $155,000 1,699 sq. ft. 11,326 sq. ft. $91
2017-03-23 Single Family Traditional Garland, TX $219,999 2,281 sq. ft. 9,583 sq. ft. $96
2017-03-23 Single Family Traditional 6605 Lyons Garland, TX 75043 $699,000 2,353 sq. ft. 217,800 sq. ft. $297
2017-03-23 Single Family Traditional 1401 Marsden Court Garland, TX 75042 $288,000 2,050 sq. ft. 9,583 sq. ft. $140
2017-03-23 Single Family Traditional 1509 Meadow Way Garland, TX 75042 $150,000 1,313 sq. ft. 7,405 sq. ft. $114
2017-03-23 Single Family Traditional 718 Dawn Drive Garland, TX 75040 $200,000 2,135 sq. ft. 8,276 sq. ft. $94
2017-03-23 Single Family Traditional 510 Ridgewood Drive Garland, TX 75041 $175,000 1,657 sq. ft. 9,583 sq. ft. $106
2017-03-23 Single Family Traditional 3001 Maple Drive Garland, TX 75042 $197,500 2,202 sq. ft. 17,860 sq. ft. $90
2017-03-23 Single Family Traditional 3001 Galaxie Road Garland, TX 75044 $184,900 1,847 sq. ft. 21,780 sq. ft. $100
2017-03-22 Single Family Traditional 1722 Charleston Drive Garland, TX 75041 $205,000 2,215 sq. ft. 9,583 sq. ft. $93
2017-03-22 Single Family Traditional 1323 Winding Brook Drive Garland, TX 75044 $998,500 4,539 sq. ft. 24,394 sq. ft. $220
2017-03-22 Single Family 1146 Gardengate Circle Garland, TX 75043 $239,900 2,364 sq. ft. 9,583 sq. ft. $101
2017-03-22 Single Family Traditional 2902 Oak Point Garland, TX 75044 $349,900 3,173 sq. ft. 6,534 sq. ft. $110
2017-03-22 Single Family Traditional 4317 Hillsdale Lane Garland, TX 75042 $190,000 1,239 sq. ft. 8,276 sq. ft. $153
2017-03-22 Single Family Traditional 6813 Aberdeen Drive Garland, TX 75044 $355,000 3,017 sq. ft. 11,326 sq. ft. $118
2017-03-22 Single Family 1909 Melody Lane Garland, TX 75042 $159,000 1,384 sq. ft. $115
2017-03-22 Single Family Traditional 122 Ridgegate Drive Garland, TX 75040 $204,000 1,965 sq. ft. 8,712 sq. ft. $104
2017-03-22 Single Family Traditional 813 Travis Street Garland, TX 75040 $135,000 1,188 sq. ft. 7,841 sq. ft. $114
2017-03-21 Single Family Traditional 2814 Centennial Drive Garland, TX 75042 $199,900 1,780 sq. ft. 6,970 sq. ft. $112
2017-03-21 Single Family 1110 Beverly Drive Garland, TX 75040 $119,900 1,344 sq. ft. 6,970 sq. ft. $89
2017-03-21 Single Family 1713 Meridian Way Garland, TX 75040 $175,000 1,274 sq. ft. 7,405 sq. ft. $137
2017-03-21 Single Family Traditional 2011 Overview Lane Garland, TX 75044 $169,900 1,408 sq. ft. 4,792 sq. ft. $121
2017-03-21 Single Family 5201 Wolverton Court Garland, TX 75043 $139,900 1,186 sq. ft. 3,920 sq. ft. $118
2017-03-21 Single Family 2313 Beaver Run Garland, TX 75044 $195,000 1,535 sq. ft. 4,356 sq. ft. $127
2017-03-21 Single Family 2902 Naples Drive Garland, TX 75040 $199,900 1,732 sq. ft. 7,405 sq. ft. $115
2017-03-21 Single Family Traditional 1715 Pilot Way Garland, TX 75040 $169,900 1,288 sq. ft. $132
2017-03-21 Single Family A-Frame 5402 Castleview Lane Garland, TX 75044 $279,000 2,146 sq. ft. 7,841 sq. ft. $130
2017-03-21 Single Family Traditional 1433 Homestead Place Garland, TX 75044 $168,500 938 sq. ft. 6,970 sq. ft. $180
2017-03-20 Single Family Ranch 3802 Country Club Road Garland, TX 75043 $389,900 3,777 sq. ft. 20,909 sq. ft. $103
2017-03-20 Single Family Traditional 1541 Dent Street Garland, TX 75042 $99,900 1,080 sq. ft. 8,712 sq. ft. $92
2017-03-20 Single Family Traditional 1501 Nicole Lane Garland, TX 75040 $218,500 2,156 sq. ft. 56,192 sq. ft. $101
2017-03-20 Single Family Traditional 309 Ridgewood Drive Garland, TX 75041 $122,500 1,311 sq. ft. 9,148 sq. ft. $93
2017-03-20 Single Family 938 Meadowdale Circle Garland, TX 75043 $172,500 1,608 sq. ft. 6,970 sq. ft. $107
2017-03-20 Single Family Traditional 2429 Lupton Drive Garland, TX 75044 $195,000 1,632 sq. ft. 6,970 sq. ft. $119
2017-03-20 Single Family 1809 Randolph Drive Garland, TX 75041 $75,000 1,253 sq. ft. 10,019 sq. ft. $60
2017-03-19 Single Family 402 Meadowhill Drive Garland, TX 75043 $175,000 1,336 sq. ft. 8,276 sq. ft. $131
2017-03-19 Single Family Garland, TX $259,970 1,917 sq. ft. 8,276 sq. ft. $136
2017-03-19 Single Family Traditional 3105 Fairwood Drive Garland, TX 75040 $234,600 1,843 sq. ft. 8,276 sq. ft. $127
2017-03-19 Single Family Traditional 1577 Dent Street Garland, TX 75042 $139,000 1,108 sq. ft. 11,761 sq. ft. $125
2017-03-19 Single Family Traditional 5214 Wyndham Court Garland, TX 75043 $142,500 1,197 sq. ft. 871 sq. ft. $119
2017-03-18 Single Family 2129 Homestead Place Garland, TX 75044 $212,000 1,536 sq. ft. 6,970 sq. ft. $138
2017-03-18 Single Family Traditional 5024 Palomino Lane Garland, TX 75043 $140,000 1,315 sq. ft. $106
2017-03-18 Single Family Traditional 1314 Swallow Lane Garland, TX 75042 $199,900 1,993 sq. ft. 9,583 sq. ft. $100
2017-03-18 Single Family Traditional 1710 Patton Drive Garland, TX 75042 $189,900 1,922 sq. ft. 10,454 sq. ft. $99
2017-03-18 Single Family 1401 Lakebreeze Drive Garland, TX 75043 $459,900 4,104 sq. ft. 13,504 sq. ft. $112
2017-03-18 Single Family Traditional 2521 Lakeside Drive Garland, TX 75042 $99,900 1,128 sq. ft. 7,841 sq. ft. $89
2017-03-18 Single Family Traditional 4314 Carrington Drive Garland, TX 75043 $287,900 2,959 sq. ft. 12,632 sq. ft. $97
2017-03-17 Single Family Traditional 2506 Lakeside Drive Garland, TX 75042 $175,000 1,732 sq. ft. 7,841 sq. ft. $101
2017-03-17 Single Family 1814 West Shore Drive Garland, TX 75043 $279,900 2,800 sq. ft. 12,197 sq. ft. $100
2017-03-17 Single Family Ranch 1241 Gardengate Circle Garland, TX 75043 $169,900 1,666 sq. ft. 16,553 sq. ft. $102
2017-03-17 Single Family Traditional 907 Bainbridge Lane Garland, TX 75040 $372,769 3,064 sq. ft. 4,356 sq. ft. $122
2017-03-17 Single Family 3409 Blue Ridge Lane Garland, TX 75042 $179,900 2,019 sq. ft. 7,841 sq. ft. $89
2017-03-17 Single Family 523 Parker Circle Garland, TX 75040 $118,980 1,398 sq. ft. 4,792 sq. ft. $85
2017-03-17 Single Family Traditional 3421 Ivanhoe Lane Garland, TX 75044 $219,900 1,638 sq. ft. 7,841 sq. ft. $134
2017-03-17 Single Family Traditional 1625 Merrimac Trail Garland, TX 75043 $262,000 2,736 sq. ft. 10,454 sq. ft. $96
2017-03-17 Single Family Ranch 2001 Ridgecrest Drive Garland, TX 75041 $259,900 1,864 sq. ft. 16,988 sq. ft. $139
2017-03-17 Single Family Traditional 2614 Ladywood Drive Garland, TX 75040 $214,900 1,590 sq. ft. 6,970 sq. ft. $135
2017-03-17 Single Family Traditional 1126 Arbor Gate Drive Garland, TX 75040 $269,900 2,718 sq. ft. 3,920 sq. ft. $99
2017-03-17 Single Family Traditional 1304 Sylvan Drive Garland, TX 75040 $110,000 807 sq. ft. 7,405 sq. ft. $136
2017-03-17 Single Family Traditional 5334 Heather Glen Drive Garland, TX 75043 $190,000 1,912 sq. ft. 7,841 sq. ft. $99
2017-03-17 Single Family Traditional 1113 Carriagehouse Lane Garland, TX 75040 $200,000 1,901 sq. ft. 7,841 sq. ft. $105
2017-03-16 Single Family Traditional 2826 Ashglen Drive Garland, TX 75043 $175,000 1,618 sq. ft. 7,405 sq. ft. $108
2017-03-16 Single Family Traditional 1405 Arendale Drive Garland, TX 75040 $169,900 1,396 sq. ft. $122
2017-03-16 Single Family Traditional 902 Chumley Road Garland, TX 75044 $415,000 3,611 sq. ft. 6,534 sq. ft. $115
2017-03-16 Single Family Mid-Century Modern 2414 Rowlett Road Garland, TX 75043 $349,000 3,520 sq. ft. 36,155 sq. ft. $99
2017-03-16 Single Family Traditional 2106 Village Green Drive Garland, TX 75044 $198,500 1,676 sq. ft. 7,405 sq. ft. $118
2017-03-16 Single Family Traditional 201 Apollo Road Garland, TX 75040 $219,900 1,736 sq. ft. $127
2017-03-16 Single Family 1013 Brookshire Circle Garland, TX 75043 $179,000 1,378 sq. ft. 7,841 sq. ft. $130
2017-03-16 Single Family Traditional 3004 Bluffview Drive Garland, TX 75043 $324,500 3,263 sq. ft. 5,663 sq. ft. $99
2017-03-16 Single Family Traditional 3142 Fieldview Drive Garland, TX 75044 $174,990 1,900 sq. ft. 8,712 sq. ft. $92
2017-03-15 Single Family 2927 Pegasus Drive Garland, TX 75044 $195,000 1,579 sq. ft. 2,178 sq. ft. $124
2017-03-15 Single Family Traditional 5405 Jester Drive Garland, TX 75044 $245,000 1,770 sq. ft. 7,405 sq. ft. $138
2017-03-15 Single Family Traditional 914 Gregory Street Garland, TX 75041 $245,000 2,268 sq. ft. 8,276 sq. ft. $108
2017-03-15 Single Family 2126 Stonehenge Drive Garland, TX 75041 $150,000 1,361 sq. ft. 13,504 sq. ft. $110
2017-03-15 Single Family A-Frame; Traditional 852 Melrose Street Garland, TX 75040 $135,000 1,030 sq. ft. 7,841 sq. ft. $131
2017-03-14 Single Family 1137 Rock Creek Drive Garland, TX 75040 $110,000 2,041 sq. ft. 10,890 sq. ft. $54
2017-03-14 Single Family Traditional 630 Asbury Park Garland, TX 75043 $179,900 1,561 sq. ft. 7,405 sq. ft. $115
2017-03-14 Single Family 709 Middle Glen Drive Garland, TX 75043 $189,000 2,149 sq. ft. 7,405 sq. ft. $88
2017-03-14 Single Family Traditional 2226 Crystal Creek Lane Garland, TX 75040 $149,900 2,160 sq. ft. 7,841 sq. ft. $69
2017-03-14 Single Family Traditional 3619 University Drive Garland, TX 75043 $279,950 3,056 sq. ft. 21,344 sq. ft. $92
2017-03-14 Single Family Traditional 446 Country View Lane Garland, TX 75043 $219,900 2,334 sq. ft. 8,712 sq. ft. $94
2017-03-14 Single Family Traditional 7121 Jack Franzen Drive Garland, TX 75043 $196,900 1,867 sq. ft. 9,583 sq. ft. $105
2017-03-13 Single Family 4241 Hartford Drive Garland, TX 75043 $155,000 1,388 sq. ft. 7,405 sq. ft. $112
2017-03-13 Single Family Traditional 2848 Capella Circle Garland, TX 75044 $152,500 1,406 sq. ft. 2,614 sq. ft. $108
2017-03-13 Single Family 4926 Firewheel Drive Garland, TX 75044 $430,000 3,791 sq. ft. 10,454 sq. ft. $113
2017-03-13 Single Family Traditional 2833 Naples Drive Garland, TX 75040 $174,900 1,623 sq. ft. 7,405 sq. ft. $108
2017-03-13 Single Family Traditional 6102 Bluewood Drive Garland, TX 75043 $224,500 2,283 sq. ft. 6,970 sq. ft. $98
2017-03-13 Single Family 1809 Hollow Creek Court Garland, TX 75040 $259,000 2,557 sq. ft. 5,663 sq. ft. $101
2017-03-13 Single Family Traditional 2012 Delmar Drive Garland, TX 75041 $139,900 1,078 sq. ft. 7,841 sq. ft. $130
2017-03-12 Single Family 4906 Westlake Drive Garland, TX 75043 $344,890 3,265 sq. ft. 436 sq. ft. $106
2017-03-12 Single Family 5113 Crawfish Lane Garland, TX 75043 $399,890 4,264 sq. ft. 436 sq. ft. $94
2017-03-12 Single Family Traditional 2921 Hillsdale Lane Garland, TX 75042 $155,000 1,388 sq. ft. 6,970 sq. ft. $112
2017-03-12 Single Family Traditional 418 Rivercove Drive Garland, TX 75044 $305,000 2,726 sq. ft. 6,970 sq. ft. $112
2017-03-11 Single Family 905 Glen Meadow Court Garland, TX 75044 $387,000 4,077 sq. ft. 8,712 sq. ft. $95
2017-03-11 Single Family Traditional 4509 Carlton Drive Garland, TX 75043 $289,000 2,859 sq. ft. 7,841 sq. ft. $101
2017-03-11 Single Family 1521 Alberbrook Place Garland, TX 75040 $336,518 2,181 sq. ft. 10,890 sq. ft. $154
2017-03-11 Single Family Ranch 2406 Norway Drive Garland, TX 75040 $170,000 1,627 sq. ft. 7,405 sq. ft. $104
2017-03-10 Single Family Traditional 1614 Curtis Drive Garland, TX 75040 $129,900 1,041 sq. ft. 8,712 sq. ft. $125
2017-03-10 Single Family Traditional 3132 Willowbrook Court Garland, TX 75044 $169,900 1,703 sq. ft. 2,178 sq. ft. $100
2017-03-10 Single Family Traditional 314 Daugherty Drive Garland, TX 75041 $115,000 1,146 sq. ft. 9,148 sq. ft. $100
2017-03-10 Single Family Ranch 1514 Mcdonald Drive Garland, TX 75041 $168,000 1,344 sq. ft. 7,405 sq. ft. $125
2017-03-10 Single Family Traditional 3310 Ridgemoor Drive Garland, TX 75044 $197,500 1,731 sq. ft. 6,970 sq. ft. $114
2017-03-10 Single Family Craftsman; Tudor 1235 Main Street Garland, TX 75040 $325,000 2,779 sq. ft. 13,068 sq. ft. $117
2017-03-10 Single Family 2734 Ripplewood Drive Garland, TX 75044 $227,000 1,918 sq. ft. 7,405 sq. ft. $118
2017-03-10 Single Family Traditional 2701 Green Oaks Drive Garland, TX 75040 $150,000 1,755 sq. ft. 11,326 sq. ft. $85
2017-03-10 Single Family Traditional 1934 Rustic Creek Drive Garland, TX 75040 $259,900 2,098 sq. ft. 6,534 sq. ft. $124
2017-03-10 Single Family Traditional 2233 Villawood Lane Garland, TX 75040 $199,900 1,714 sq. ft. 7,405 sq. ft. $117
2017-03-10 Single Family Traditional 2929 Apple Valley Drive Garland, TX 75043 $269,000 2,655 sq. ft. 10,454 sq. ft. $101
2017-03-10 Single Family Traditional 2222 Walnut Grove Lane Garland, TX 75044 $189,900 1,341 sq. ft. 3,920 sq. ft. $142
2017-03-10 Single Family 1506 Grinstad Drive Garland, TX 75040 $225,000 2,040 sq. ft. 7,841 sq. ft. $110
2017-03-10 Single Family A-Frame 1505 Whiteoak Drive Garland, TX 75040 $129,000 1,159 sq. ft. 7,405 sq. ft. $111
2017-03-10 Single Family Traditional 2206 Nottingham Drive Garland, TX 75041 $195,000 2,140 sq. ft. 20,909 sq. ft. $91
2017-03-09 Single Family Traditional 3225 Cross Timbers Lane Garland, TX 75044 $365,000 2,650 sq. ft. 10,454 sq. ft. $138
2017-03-09 Single Family Traditional 1817 Meadowcrest Drive Garland, TX 75042 $149,950 1,077 sq. ft. 7,405 sq. ft. $139
2017-03-09 Single Family Traditional 2218 Jacqueline Drive Garland, TX 75042 $260,000 2,248 sq. ft. 7,405 sq. ft. $116
2017-03-09 Single Family Traditional 4722 Grovetree Lane Garland, TX 75043 $165,000 1,865 sq. ft. 4,792 sq. ft. $88
2017-03-09 Single Family Traditional 2709 Strother Drive Garland, TX 75044 $245,000 1,736 sq. ft. 6,534 sq. ft. $141
2017-03-09 Single Family Traditional 1409 Guildford Street Garland, TX 75044 $197,000 2,033 sq. ft. 8,712 sq. ft. $97
2017-03-09 Single Family 914 Montclair Drive Garland, TX 75040 $130,000 1,255 sq. ft. 8,276 sq. ft. $104
2017-03-09 Single Family 1222 Woodcrest Drive Garland, TX 75040 $169,900 2,094 sq. ft. 6,970 sq. ft. $81
2017-03-09 Single Family Traditional 2805 Caladium Court Garland, TX 75040 $235,000 2,026 sq. ft. 4,792 sq. ft. $116
2017-03-09 Single Family Traditional 1456 Maple Drive Garland, TX 75042 $130,000 1,276 sq. ft. 11,326 sq. ft. $102
2017-03-09 Single Family 718 Palm Desert Drive Garland, TX 75044 $315,000 2,752 sq. ft. 7,841 sq. ft. $114
2017-03-09 Single Family French 3002 Mountain Ash Court Garland, TX 75044 $454,900 3,651 sq. ft. 13,068 sq. ft. $125
2017-03-08 Single Family Traditional 2005 Morningside Drive Garland, TX 75041 $229,900 1,805 sq. ft. 10,890 sq. ft. $127
2017-03-08 Single Family Traditional 6714 Clear Springs Circle Garland, TX 75044 $300,000 2,301 sq. ft. 3,920 sq. ft. $130
2017-03-08 Single Family Traditional 725 Brookfield Drive Garland, TX 75040 $225,000 1,819 sq. ft. 7,405 sq. ft. $124
2017-03-08 Single Family Traditional 2506 Dillon Drive Garland, TX 75040 $205,000 1,867 sq. ft. 6,970 sq. ft. $110
2017-03-07 Single Family Traditional 1521 Bowie Street Garland, TX 75042 $198,000 1,713 sq. ft. 7,841 sq. ft. $116
2017-03-07 Single Family Traditional 1101 Worcester Lane Garland, TX 75040 $190,000 1,860 sq. ft. 11,761 sq. ft. $102
2017-03-07 Single Family Traditional 1421 Inwood Boulevard Garland, TX 75042 $129,900 1,224 sq. ft. 7,405 sq. ft. $106
2017-03-06 Single Family Traditional 5914 Sweetleaf Lane Garland, TX 75043 $199,900 1,764 sq. ft. 7,841 sq. ft. $113
2017-03-06 Single Family Traditional 109 Chico Drive Garland, TX 75041 $139,900 1,230 sq. ft. 6,970 sq. ft. $114
2017-03-06 Single Family 2521 Hollydale Drive Garland, TX 75044 $229,000 1,790 sq. ft. 11,761 sq. ft. $128
2017-03-06 Single Family Traditional 4005 Hillsdale Lane Garland, TX 75042 $189,000 1,683 sq. ft. 7,841 sq. ft. $112
2017-03-04 Single Family Traditional 3422 High Plateau Drive Garland, TX 75044 $227,000 2,027 sq. ft. 7,841 sq. ft. $112
2017-03-04 Single Family Mediterranean; Traditional 2906 Country Club Road Garland, TX 75043 $335,000 3,301 sq. ft. 20,473 sq. ft. $101
2017-03-03 Single Family 2810 Milford Avenue Garland, TX 75044 $395,000 3,150 sq. ft. 11,761 sq. ft. $125
2017-03-03 Single Family Ranch 1109 Geneva Court Garland, TX 75040 $150,000 1,308 sq. ft. 8,712 sq. ft. $115
2017-03-03 Single Family Traditional 2002 Morningside Drive Garland, TX 75041 $249,900 2,070 sq. ft. 11,326 sq. ft. $121
2017-03-03 Single Family Traditional 213 Bent Creek Drive Garland, TX 75040 $229,900 2,324 sq. ft. 7,405 sq. ft. $99
2017-03-03 Single Family Traditional 6501 Eagle Nest Drive Garland, TX 75044 $317,000 2,267 sq. ft. 3,920 sq. ft. $140
2017-03-03 Single Family 1806 Redcliff Court Garland, TX 75043 $499,900 4,064 sq. ft. 11,761 sq. ft. $123
2017-03-03 Single Family Traditional 3525 Stampede Drive Garland, TX 75044 $359,900 2,207 sq. ft. 6,098 sq. ft. $163
2017-03-03 Single Family Traditional 918 Fair Oaks Drive Garland, TX 75040 $189,900 2,455 sq. ft. 8,276 sq. ft. $77
2017-03-02 Single Family Traditional 2501 Timber Ridge Drive Garland, TX 75044 $359,900 2,870 sq. ft. 8,276 sq. ft. $125
2017-03-02 Single Family Traditional 1609 Whitney Drive Garland, TX 75040 $155,000 1,385 sq. ft. 7,405 sq. ft. $112
2017-03-02 Single Family Traditional 1321 Parkmont Drive Garland, TX 75041 $140,000 1,284 sq. ft. 8,276 sq. ft. $109
2017-03-02 Single Family 2201 Jamie Drive Garland, TX 75040 $119,900 1,216 sq. ft. 6,098 sq. ft. $99
2017-03-02 Single Family Traditional 5309 Oceanport Drive Garland, TX 75043 $165,000 1,799 sq. ft. 8,712 sq. ft. $92
2017-03-02 Single Family Traditional 3214 Ridgedale Drive Garland, TX 75041 $250,000 3,097 sq. ft. 18,295 sq. ft. $81
2017-03-02 Single Family Traditional 3914 Tawakoni Lane Garland, TX 75043 $215,000 2,298 sq. ft. 5,663 sq. ft. $94
2017-03-02 Single Family 722 Meadowcreek Court Garland, TX 75043 $189,900 1,637 sq. ft. 5,227 sq. ft. $116
2017-03-02 Single Family Traditional 2606 Caledonia Cove Garland, TX 75043 $469,900 4,878 sq. ft. 7,405 sq. ft. $96
2017-03-02 Single Family French; Ranch 7505 Vista Ridge Court Garland, TX 75044 $334,900 2,678 sq. ft. 8,276 sq. ft. $125
2017-03-02 Single Family Traditional 6405 Briarknoll Drive Garland, TX 75043 $159,900 1,346 sq. ft. 6,970 sq. ft. $119
2017-03-01 Single Family Traditional 909 Meadowgate Drive Garland, TX 75040 $199,000 1,937 sq. ft. 8,276 sq. ft. $103
2017-03-01 Single Family 1933 Elm Creek Drive Garland, TX 75040 $176,900 1,352 sq. ft. 7,841 sq. ft. $131
2017-03-01 Single Family Traditional 2901 Club Meadow Drive Garland, TX 75043 $369,000 4,349 sq. ft. 9,148 sq. ft. $85
2017-03-01 Single Family 2518 Spring Hill Garland, TX 75044 $439,900 3,731 sq. ft. 9,148 sq. ft. $118
2017-03-01 Single Family 1346 Mill Wood Lane Garland, TX 75040 $220,000 1,906 sq. ft. 4,792 sq. ft. $115
2017-02-28 Single Family Traditional 122 Camilla Lane Garland, TX 75040 $175,000 1,317 sq. ft. 6,970 sq. ft. $133
2017-02-28 Single Family Traditional 1314 Bluebird Lane Garland, TX 75042 $159,990 1,165 sq. ft. 8,276 sq. ft. $137
2017-02-28 Single Family 521 Woodcastle Drive Garland, TX 75040 $185,000 1,411 sq. ft. 9,148 sq. ft. $131
2017-02-28 Single Family 4021 Random Circle Garland, TX 75043 $209,000 1,826 sq. ft. 12,197 sq. ft. $114
2017-02-28 Single Family 710 Green Apple Drive Garland, TX 75044 $315,000 2,363 sq. ft. 6,970 sq. ft. $133
2017-02-27 Single Family 414 Wildbriar Drive Garland, TX 75043 $158,000 1,518 sq. ft. 7,405 sq. ft. $104
2017-02-27 Single Family Traditional 3048 Cortez Drive Garland, TX 75041 $110,000 774 sq. ft. 12,632 sq. ft. $142
2017-02-27 Single Family Traditional 2425 Stoneleigh Drive Garland, TX 75044 $220,000 1,973 sq. ft. 6,970 sq. ft. $112
2017-02-27 Single Family 4833 Clamdigger Way Garland, TX 75043 $297,990 2,199 sq. ft. 8,276 sq. ft. $136
2017-02-27 Single Family Traditional 4002 Aldenham Drive Garland, TX 75043 $245,000 3,186 sq. ft. 15,246 sq. ft. $77
2017-02-26 Single Family Traditional 113 Havenwood Lane Garland, TX 75043 $199,500 1,780 sq. ft. 7,841 sq. ft. $112
2017-02-26 Single Family Traditional 2914 Rilla Drive Garland, TX 75041 $139,900 1,404 sq. ft. 7,841 sq. ft. $100
2017-02-25 Single Family Traditional 2605 Francisco Drive Garland, TX 75044 $240,000 1,685 sq. ft. 7,841 sq. ft. $142
2017-02-25 Single Family Traditional 514 Vista Drive Garland, TX 75041 $172,500 2,046 sq. ft. 9,583 sq. ft. $84
2017-02-25 Single Family Traditional 5814 Robinglen Drive Garland, TX 75043 $180,000 1,537 sq. ft. 13,068 sq. ft. $117
2017-02-25 Single Family Traditional 6110 Westlake Court Garland, TX 75043 $218,000 2,385 sq. ft. 7,841 sq. ft. $91
2017-02-24 Single Family Traditional 522 Granada Drive Garland, TX 75043 $204,950 2,459 sq. ft. 6,970 sq. ft. $83
2017-02-24 Single Family Traditional 3018 Apple Valley Drive Garland, TX 75043 $260,245 3,093 sq. ft. 13,939 sq. ft. $84
2017-02-24 Single Family 3102 Knightsbridge Lane Garland, TX 75043 $399,995 3,694 sq. ft. 10,890 sq. ft. $108
2017-02-24 Single Family Traditional 5026 Presidio Drive Garland, TX 75043 $185,000 1,837 sq. ft. 6,970 sq. ft. $101
2017-02-24 Single Family Traditional 614 Yaupon Drive Garland, TX 75044 $399,500 3,083 sq. ft. 8,712 sq. ft. $130
2017-02-24 Single Family Traditional 1218 Merrimac Trail Garland, TX 75043 $184,900 1,682 sq. ft. 10,019 sq. ft. $110
2017-02-24 Single Family Traditional 3414 Flagstone Drive Garland, TX 75044 $199,500 1,845 sq. ft. 6,970 sq. ft. $108
2017-02-23 Single Family Traditional 1701 Glenville Garland, TX 75042 $175,352 1,337 sq. ft. $131
2017-02-23 Single Family 205 Xavier Drive Garland, TX 75043 $244,900 3,161 sq. ft. 14,810 sq. ft. $77
2017-02-23 Single Family Traditional 3525 Ridgemoor Drive Garland, TX 75044 $274,900 2,526 sq. ft. 8,712 sq. ft. $109
2017-02-23 Single Family Traditional 2626 Kimberly Drive Garland, TX 75040 $234,900 2,138 sq. ft. 7,405 sq. ft. $110
2017-02-23 Single Family 309 Cliff Drive Garland, TX 75042 $169,900 1,586 sq. ft. 10,019 sq. ft. $107
2017-02-23 Single Family Traditional 4513 Stirling Drive Garland, TX 75043 $214,900 1,988 sq. ft. 6,098 sq. ft. $108
2017-02-23 Single Family Traditional 4226 Mayflower Drive Garland, TX 75043 $129,900 1,610 sq. ft. 6,970 sq. ft. $81
2017-02-23 Single Family Traditional 2614 Roman Way Garland, TX 75040 $170,000 1,423 sq. ft. 7,841 sq. ft. $119
2017-02-23 Single Family Traditional Garland, TX $165,000 1,266 sq. ft. 7,405 sq. ft. $130
2017-02-23 Single Family Traditional 2010 Valley Creek Drive Garland, TX 75040 $229,500 1,655 sq. ft. 5,227 sq. ft. $139
2017-02-23 Single Family Traditional 2522 Country Club Parkway Garland, TX 75041 $199,500 2,106 sq. ft. 29,185 sq. ft. $95
2017-02-23 Single Family Traditional 2834 Laurel Oaks Drive Garland, TX 75044 $260,000 1,795 sq. ft. 4,792 sq. ft. $145
2017-02-23 Single Family Traditional 4622 Sprucewood Lane Garland, TX 75044 $209,000 2,140 sq. ft. 9,148 sq. ft. $98
2017-02-23 Single Family Traditional 2517 Pecan Meadow Drive Garland, TX 75040 $215,000 1,890 sq. ft. 7,841 sq. ft. $114
2017-02-22 Single Family Traditional 5834 Macgregor Drive Garland, TX 75043 $319,999 3,010 sq. ft. 8,276 sq. ft. $106
2017-02-22 Single Family Traditional 4015 Greenway Drive Garland, TX 75041 $135,000 1,987 sq. ft. 5,663 sq. ft. $68
2017-02-22 Single Family 304 Chandler Drive Garland, TX 75040 $45,000 823 sq. ft. 7,405 sq. ft. $55
2017-02-22 Single Family Ranch 1829 San Antonio Drive Garland, TX 75042 $179,900 1,696 sq. ft. 8,276 sq. ft. $106
2017-02-22 Single Family Traditional 1309 Fawn Ridge Trail Garland, TX 75042 $295,000 2,255 sq. ft. 8,712 sq. ft. $131
2017-02-22 Single Family 1915 Geary Street Garland, TX 75043 $200,000 2,279 sq. ft. 4,792 sq. ft. $88
2017-02-21 Single Family Traditional 710 Ridgegate Drive Garland, TX 75040 $239,900 2,177 sq. ft. 8,276 sq. ft. $110
2017-02-21 Single Family 6329 Alta Oaks Drive Garland, TX 75043 $169,900 1,758 sq. ft. 11,761 sq. ft. $97
2017-02-21 Single Family Traditional 2922 Geneva Drive Garland, TX 75040 $175,000 1,623 sq. ft. 6,970 sq. ft. $108
2017-02-21 Single Family Traditional 2221 Hollow Way Garland, TX 75041 $337,000 3,567 sq. ft. 6,970 sq. ft. $94
2017-02-20 Single Family Traditional 4606 Parkhaven Drive Garland, TX 75043 $299,990 3,228 sq. ft. 10,454 sq. ft. $93
2017-02-20 Single Family Traditional 4006 Walnut Street Garland, TX 75042 $145,000 1,240 sq. ft. 7,405 sq. ft. $117
2017-02-20 Single Family 102 Harvard Drive Garland, TX 75041 $179,900 1,562 sq. ft. 12,197 sq. ft. $115
2017-02-20 Single Family Traditional 3622 Syracuse Drive Garland, TX 75043 $230,000 1,636 sq. ft. 10,454 sq. ft. $141
2017-02-19 Single Family Traditional 4906 Wordsworth Drive Garland, TX 75043 $199,900 2,228 sq. ft. 6,098 sq. ft. $90
2017-02-19 Single Family Traditional 2906 Bluffview Drive Garland, TX 75043 $282,500 2,822 sq. ft. 6,098 sq. ft. $100
2017-02-19 Single Family Ranch 1101 Kent Brown Road Garland, TX 75044 $399,000 3,606 sq. ft. 9,148 sq. ft. $111
2017-02-19 Single Family Traditional 3114 Country Club Road Garland, TX 75043 $335,000 3,164 sq. ft. 24,394 sq. ft. $106
2017-02-19 Single Family Traditional 6303 Wildlife Trail Garland, TX 75044 $320,000 2,267 sq. ft. 6,098 sq. ft. $141
2017-02-19 Single Family Traditional 7517 Briarglen Court Garland, TX 75044 $469,900 3,422 sq. ft. 11,761 sq. ft. $137
2017-02-19 Single Family Traditional Garland, TX $265,000 2,992 sq. ft. 19,166 sq. ft. $89
2017-02-19 Single Family Ranch; Traditional 2206 Sylvan Drive Garland, TX 75040 $239,900 2,880 sq. ft. 14,375 sq. ft. $83
2017-02-19 Single Family A-Frame 2505 Suncrest Drive Garland, TX 75044 $239,900 1,739 sq. ft. 7,405 sq. ft. $138
2017-02-19 Single Family Traditional 1302 Leicester Street Garland, TX 75040 $227,000 2,567 sq. ft. 10,019 sq. ft. $88
2017-02-19 Single Family 5422 Meadow Vista Lane Garland, TX 75043 $180,000 1,791 sq. ft. 7,405 sq. ft. $100
2017-02-19 Single Family Colonial 5202 Stagecoach Lane Garland, TX 75043 $139,900 1,292 sq. ft. 8,276 sq. ft. $108
2017-02-19 Single Family Traditional 5126 Lakeridge Court Garland, TX 75043 $145,000 1,334 sq. ft. 4,356 sq. ft. $109
2017-02-19 Single Family Traditional 1209 Dandelion Drive Garland, TX 75043 $197,000 2,222 sq. ft. 7,841 sq. ft. $89
2017-02-19 Single Family 813 Malibu Drive Garland, TX 75043 $135,000 1,036 sq. ft. 7,405 sq. ft. $130
2017-02-19 Single Family 1433 Morrison Drive Garland, TX 75040 $149,900 1,324 sq. ft. 7,405 sq. ft. $113
2017-02-19 Single Family Traditional 2226 Norway Drive Garland, TX 75040 $175,000 1,297 sq. ft. 7,405 sq. ft. $135
2017-02-19 Single Family 5422 Kentcroft Drive Garland, TX 75043 $184,900 1,405 sq. ft. 10,019 sq. ft. $132
2017-02-19 Single Family Traditional 2621 Scotswood Drive Garland, TX 75041 $159,000 1,395 sq. ft. 6,970 sq. ft. $114
2017-02-19 Single Family 605 Miller Road Garland, TX 75041 $128,995 1,190 sq. ft. 7,405 sq. ft. $108
2017-02-19 Single Family Traditional 4818 Cloverdale Lane Garland, TX 75043 $129,900 1,164 sq. ft. 8,276 sq. ft. $112
2017-02-19 Single Family Ranch 121 Harvard Drive Garland, TX 75041 $169,000 1,475 sq. ft. 9,148 sq. ft. $115
2017-02-19 Single Family A-Frame 4815 Rollingwood Court Garland, TX 75043 $121,300 1,235 sq. ft. 3,049 sq. ft. $98
2017-02-19 Single Family Traditional 509 Miller Road Garland, TX 75041 $90,000 770 sq. ft. 7,405 sq. ft. $117
2017-02-15 Single Family Traditional 5206 Welbeck Court Garland, TX 75043 $190,000 2,284 sq. ft. 16,988 sq. ft. $83
2017-02-15 Single Family Traditional 5526 Remington Drive Garland, TX 75044 $299,000 2,947 sq. ft. 4,792 sq. ft. $101
2017-02-15 Single Family Traditional 1805 Blenheim Drive Garland, TX 75043 $428,900 3,284 sq. ft. 10,454 sq. ft. $131
2017-02-14 Single Family Ranch 2905 Charles Drive Garland, TX 75041 $89,900 1,120 sq. ft. $80
2017-02-13 Single Family Traditional 1712 Westway Avenue Garland, TX 75042 $239,900 2,492 sq. ft. 9,148 sq. ft. $96
2017-02-13 Single Family Traditional 4821 Bobtown Road Garland, TX 75043 $190,000 1,714 sq. ft. 7,405 sq. ft. $111
2017-02-13 Single Family Traditional 2009 Westshore Drive Garland, TX 75043 $299,000 2,697 sq. ft. 10,890 sq. ft. $111
2017-02-13 Single Family Traditional 4513 Burdock Drive Garland, TX 75043 $210,000 2,006 sq. ft. 13,939 sq. ft. $105
2017-02-13 Single Family Traditional 1705 Ruth Drive Garland, TX 75042 $149,900 1,116 sq. ft. 10,019 sq. ft. $134
2017-02-11 Single Family 410 Vista Drive Garland, TX 75041 $133,000 1,265 sq. ft. 9,148 sq. ft. $105
2017-02-11 Single Family Mid-Century Modern; Traditional 4613 Cornell Drive Garland, TX 75042 $155,000 1,062 sq. ft. 6,970 sq. ft. $146
2017-02-11 Single Family Traditional 1902 Northwind Court Garland, TX 75040 $175,000 1,443 sq. ft. 8,276 sq. ft. $121
2017-02-11 Single Family 5410 Deep Canyon Drive Garland, TX 75043 $172,000 1,550 sq. ft. 18,295 sq. ft. $111
2017-02-10 Single Family Traditional 4530 Beaus Way Garland, TX 75043 $201,000 1,987 sq. ft. 7,405 sq. ft. $101
2017-02-10 Single Family Traditional 226 Springbranch Drive Garland, TX 75043 $139,000 1,271 sq. ft. 7,841 sq. ft. $109
2017-02-10 Single Family 1602 Hastings Drive Garland, TX 75042 $188,000 1,588 sq. ft. 7,405 sq. ft. $118
2017-02-10 Single Family Traditional 3710 O Henry Drive Garland, TX 75042 $225,000 2,246 sq. ft. 7,405 sq. ft. $100
2017-02-09 Single Family Traditional 5126 Durango Drive Garland, TX 75043 $209,000 2,685 sq. ft. 9,148 sq. ft. $78
2017-02-09 Single Family 3009 Club Meadow Drive Garland, TX 75043 $569,900 4,492 sq. ft. 14,810 sq. ft. $127
2017-02-09 Single Family Traditional 3605 Manchester Drive Garland, TX 75041 $160,000 1,568 sq. ft. 8,712 sq. ft. $102
2017-02-09 Single Family 1609 Davis Boulevard Garland, TX 75042 $139,900 1,038 sq. ft. 7,841 sq. ft. $135
2017-02-09 Single Family 2726 Cedar Elm Lane Garland, TX 75043 $174,900 1,457 sq. ft. 3,920 sq. ft. $120
2017-02-08 Single Family Traditional 4521 Hummingbird Garland, TX 75043 $391,219 4,245 sq. ft. 10,890 sq. ft. $92
2017-02-08 Single Family Traditional 409 Quintana Drive Garland, TX 75043 $205,000 2,287 sq. ft. 6,534 sq. ft. $90
2017-02-08 Single Family Traditional 2310 Denmark Drive Garland, TX 75040 $168,000 1,697 sq. ft. 7,405 sq. ft. $99
2017-02-07 Single Family Traditional 4929 Pinehurst Drive Garland, TX 75043 $140,000 1,337 sq. ft. 10,454 sq. ft. $105
2017-02-07 Single Family 1810 Blenheim Drive Garland, TX 75043 $429,900 3,635 sq. ft. 10,019 sq. ft. $118
2017-02-06 Single Family Traditional 1413 Springview Drive Garland, TX 75040 $209,000 2,008 sq. ft. 9,148 sq. ft. $104
2017-02-06 Single Family Traditional 210 Xavier Drive Garland, TX 75043 $149,000 2,118 sq. ft. 15,682 sq. ft. $70
2017-02-06 Single Family Traditional 7402 Vineyard Trail Garland, TX 75044 $325,000 2,323 sq. ft. 7,841 sq. ft. $140
2017-02-06 Single Family Traditional 1718 Regents Park Court Garland, TX 75043 $399,900 2,400 sq. ft. 12,197 sq. ft. $167
2017-02-06 Single Family Traditional 2902 Princewood Drive Garland, TX 75040 $285,000 2,394 sq. ft. 7,841 sq. ft. $119
2017-02-05 Single Family Traditional 209 Saddlebrook Drive Garland, TX 75044 $290,000 2,409 sq. ft. 7,841 sq. ft. $120
2017-02-03 Single Family Mediterranean 5242 Lake Terrace Court Garland, TX 75043 $525,000 3,922 sq. ft. 5,227 sq. ft. $134
2017-02-03 Single Family 3301 Pamela Place Garland, TX 75044 $194,900 1,785 sq. ft. 6,970 sq. ft. $109
2017-02-03 Single Family Split Level; Traditional 1001 Clack Drive Garland, TX 75044 $437,000 4,012 sq. ft. 8,712 sq. ft. $109
2017-02-03 Single Family A-Frame 3425 Ivanhoe Lane Garland, TX 75044 $214,064 1,574 sq. ft. 7,841 sq. ft. $136
2017-02-03 Single Family Traditional 2906 Nova Drive Garland, TX 75044 $149,990 1,014 sq. ft. 2,614 sq. ft. $148
2017-02-03 Single Family Traditional 2124 Meadowview Court Garland, TX 75043 $229,500 2,230 sq. ft. 13,939 sq. ft. $103
2017-02-02 Single Family Traditional 2932 Old Orchard Road Garland, TX 75041 $177,500 1,481 sq. ft. 10,890 sq. ft. $120
2017-02-02 Single Family 4209 Maidstone Drive Garland, TX 75043 $265,000 3,180 sq. ft. 6,534 sq. ft. $83
2017-02-02 Single Family Traditional 218 Jessica Drive Garland, TX 75040 $198,900 1,776 sq. ft. 8,712 sq. ft. $112
2017-02-02 Single Family Traditional 606 Hearthstone Court Garland, TX 75040 $265,000 2,394 sq. ft. 7,405 sq. ft. $111
2017-02-02 Single Family Traditional 6213 Scottsboro Lane Garland, TX 75044 $310,000 2,741 sq. ft. 12,632 sq. ft. $113
2017-02-01 Single Family 4249 Burning Tree Garland, TX 75042 $214,900 2,160 sq. ft. 2,178 sq. ft. $99
2017-02-01 Single Family Traditional 509 Palm Desert Drive Garland, TX 75044 $355,000 2,924 sq. ft. 7,841 sq. ft. $121
2017-02-01 Single Family Ranch 450 Country View Lane Garland, TX 75043 $154,000 1,628 sq. ft. 8,712 sq. ft. $95
2017-02-01 Single Family Traditional 2506 Richcreek Drive Garland, TX 75044 $159,000 1,288 sq. ft. 7,405 sq. ft. $123
2017-01-31 Single Family Traditional 2501 Highmont Drive Garland, TX 75041 $179,999 1,684 sq. ft. 7,405 sq. ft. $107
2017-01-31 Single Family 1505 Spring Hollow Lane Garland, TX 75043 $249,000 3,194 sq. ft. 10,890 sq. ft. $78
2017-01-31 Single Family Contemporary/Modern; Mediterranean; Mid-Century Modern 5238 Lake Terrace Court Garland, TX 75043 $499,000 3,757 sq. ft. 5,227 sq. ft. $133
2017-01-31 Single Family Contemporary/Modern 414 Ridgegate Drive Garland, TX 75040 $269,900 1,935 sq. ft. 8,276 sq. ft. $139
2017-01-30 Single Family Traditional 1822 Creekway Drive Garland, TX 75043 $249,900 2,151 sq. ft. 10,890 sq. ft. $116
2017-01-30 Single Family 514 Calvin Drive Garland, TX 75041 $143,900 1,355 sq. ft. 6,970 sq. ft. $106
2017-01-29 Single Family Traditional 806 Hudson Drive Garland, TX 75043 $155,000 1,291 sq. ft. 7,841 sq. ft. $120
2017-01-28 Single Family Traditional 2126 Country Oaks Drive Garland, TX 75040 $289,900 3,200 sq. ft. 13,068 sq. ft. $91
2017-01-28 Single Family 2309 Heather Ridge Lane Garland, TX 75040 $250,000 2,155 sq. ft. 6,970 sq. ft. $116
2017-01-26 Single Family Traditional 5606 Harbor Town Drive Garland, TX 75044 $299,900 2,152 sq. ft. 6,970 sq. ft. $139
2017-01-26 Single Family Traditional 2017 Oak Bend Lane Garland, TX 75040 $211,900 1,779 sq. ft. 6,970 sq. ft. $119
2017-01-26 Single Family Traditional 3513 Knight Lane Garland, TX 75042 $185,000 1,990 sq. ft. 7,405 sq. ft. $93
2017-01-26 Single Family Ranch 6002 Sasaki Way Garland, TX 75043 $180,000 1,902 sq. ft. 7,841 sq. ft. $95
2017-01-24 Single Family Ranch 631 Ridgewood Drive Garland, TX 75041 $224,900 2,363 sq. ft. 14,375 sq. ft. $95
2017-01-24 Single Family Traditional 6505 Barclay Lane Garland, TX 75044 $385,000 4,305 sq. ft. 12,632 sq. ft. $89
2017-01-24 Single Family Traditional 1002 Woburn Drive Garland, TX 75043 $120,000 1,019 sq. ft. 200,376 sq. ft. $118
2017-01-23 Single Family Split Level 1300 Elmhurst Drive Garland, TX 75041 $159,900 1,843 sq. ft. 20,909 sq. ft. $87
2017-01-22 Single Family 1610 Novel Drive Garland, TX 75040 $129,200 1,325 sq. ft. 6,970 sq. ft. $98
2017-01-21 Single Family Traditional 2606 Country Club Parkway Garland, TX 75043 $224,900 2,385 sq. ft. 10,019 sq. ft. $94
2017-01-20 Single Family Traditional 1409 Waterford Place Garland, TX 75044 $310,900 2,655 sq. ft. 10,890 sq. ft. $117
2017-01-20 Single Family Ranch 2221 Huskey Street Garland, TX 75041 $98,900 916 sq. ft. 9,148 sq. ft. $108
2017-01-20 Single Family Traditional 1018 Palm Desert Drive Garland, TX 75044 $299,500 2,796 sq. ft. 8,712 sq. ft. $107
2017-01-19 Single Family Traditional 613 Kingsbridge Drive Garland, TX 75040 $169,900 1,626 sq. ft. 8,712 sq. ft. $104
2017-01-18 Single Family 1321 Lakeside Drive Garland, TX 75040 $172,000 1,471 sq. ft. 7,841 sq. ft. $117
2017-01-16 Single Family 4305 Crystal Lane Garland, TX 75043 $159,500 1,460 sq. ft. 6,970 sq. ft. $109
2017-01-16 Single Family Traditional 4702 Princeton Drive Garland, TX 75042 $175,000 1,609 sq. ft. $109
2017-01-12 Single Family Traditional 622 Fairway Lakes Drive Garland, TX 75044 $400,000 4,154 sq. ft. 9,148 sq. ft. $96
2017-01-12 Single Family Traditional 1422 Meadow Way Garland, TX 75042 $184,900 1,589 sq. ft. 7,405 sq. ft. $116
2017-01-12 Single Family 322 Apollo Road Garland, TX 75040 $202,000 1,615 sq. ft. 6,970 sq. ft. $125
2017-01-10 Single Family Ranch 708 Chandler Drive Garland, TX 75040 $117,900 834 sq. ft. 7,841 sq. ft. $141
2017-01-09 Single Family Traditional 1918 Brookhill Garland, TX 75043 $334,972 2,811 sq. ft. $119
2017-01-09 Single Family 1922 Brookhill Garland, TX 75043 $303,241 2,228 sq. ft. 21,780 sq. ft. $136
2017-01-06 Single Family 1818 Trowbridge Street Garland, TX 75044 $206,000 1,603 sq. ft. 7,841 sq. ft. $129
2017-01-06 Single Family Traditional 7005 Wills Drive Garland, TX 75043 $197,900 1,824 sq. ft. 8,276 sq. ft. $108
2017-01-05 Single Family Traditional 2622 Ridgemeade Drive Garland, TX 75040 $297,500 2,779 sq. ft. 9,148 sq. ft. $107
2017-01-05 Single Family Traditional 5330 Greenbrook Drive Garland, TX 75043 $189,000 1,732 sq. ft. 6,970 sq. ft. $109
2017-01-05 Single Family Traditional 1513 Alberbrook Place Garland, TX 75040 $329,990 2,200 sq. ft. $150
2017-01-05 Single Family Traditional 1509 Alberbrook Place Garland, TX 75040 $334,990 2,020 sq. ft. $166
2017-01-05 Single Family Traditional 1513 Cypress Garden Lane Garland, TX 75040 $364,990 3,079 sq. ft. $119
2017-01-04 Single Family Traditional 1115 Winding Brook Drive Garland, TX 75044 $419,000 2,705 sq. ft. 10,454 sq. ft. $155
2017-01-03 Single Family Traditional 701 Ballybunion Circle Garland, TX 75044 $599,000 4,744 sq. ft. 15,246 sq. ft. $126
2017-01-02 Single Family 2030 Court Place Garland, TX 75041 $99,900 1,667 sq. ft. 2,614 sq. ft. $60
2016-12-28 Single Family Traditional 605 Linda Drive Garland, TX 75041 $95,000 1,458 sq. ft. 18,295 sq. ft. $65
2016-12-28 Single Family Traditional 3014 Waterside Court Garland, TX 75044 $415,000 3,098 sq. ft. 11,326 sq. ft. $134
2016-12-27 Single Family 1710 Creekway Drive Garland, TX 75043 $261,000 2,291 sq. ft. 12,632 sq. ft. $114
2016-12-27 Single Family Craftsman; Early American 225 9th Street Garland, TX 75040 $175,000 1,854 sq. ft. 6,098 sq. ft. $94
2016-12-25 Single Family Traditional 1226 Goldenrod Drive Garland, TX 75043 $200,000 1,862 sq. ft. 6,970 sq. ft. $107
2016-12-22 Single Family 1113 Sicily Drive Garland, TX 75040 $236,000 2,284 sq. ft. 7,841 sq. ft. $103
2016-12-19 Single Family 805 Longbeach Drive Garland, TX 75043 $145,000 999 sq. ft. 6,970 sq. ft. $145
2016-12-15 Single Family 4325 Clemson Drive Garland, TX 75042 $179,500 2,434 sq. ft. 7,405 sq. ft. $74
2016-12-14 Single Family 3402 Windridge Drive Garland, TX 75043 $187,000 2,436 sq. ft. 13,068 sq. ft. $77
2016-12-14 Single Family Traditional 3028 Bonita Drive Garland, TX 75041 $150,000 1,050 sq. ft. 34,848 sq. ft. $143
2016-12-13 Single Family 4817 Orchard Ridge Drive Garland, TX 75043 $204,900 1,880 sq. ft. 5,227 sq. ft. $109
2016-12-09 Single Family Traditional 4401 Mayflower Drive Garland, TX 75043 $120,000 1,951 sq. ft. 7,841 sq. ft. $62
2016-12-07 Single Family Traditional 7110 Covewood Drive Garland, TX 75044 $617,900 4,568 sq. ft. 19,166 sq. ft. $135
2016-12-05 Single Family Traditional 902 Cardigan Street Garland, TX 75040 $229,600 2,646 sq. ft. 12,197 sq. ft. $87
2016-12-05 Single Family Traditional 2001 Northlake Drive Garland, TX 75040 $75,000 1,322 sq. ft. 11,761 sq. ft. $57
2016-12-04 Single Family 6718 Lake Shore Drive Garland, TX 75044 $418,000 4,194 sq. ft. 12,197 sq. ft. $100
2016-12-01 Single Family 746 Tacoma Drive Garland, TX 75043 $189,990 1,800 sq. ft. 8,712 sq. ft. $106
2016-11-28 Single Family 3410 Morning Star Lane Garland, TX 75043 $184,900 2,313 sq. ft. 9,148 sq. ft. $80
2016-11-26 Single Family Traditional 1209 Columbine Drive Garland, TX 75043 $182,000 1,867 sq. ft. 6,970 sq. ft. $97
2016-11-21 Single Family 5121 Crawfish Lane Garland, TX 75043 $289,990 2,199 sq. ft. 436 sq. ft. $132
2016-11-19 Single Family Traditional 2917 Newburyport Avenue Garland, TX 75044 $339,900 2,749 sq. ft. 7,841 sq. ft. $124
2016-11-18 Single Family 4129 Salem Drive Garland, TX 75043 $240,000 2,586 sq. ft. 6,970 sq. ft. $93
2016-11-17 Single Family Traditional 2101 Diamond Oaks Drive Garland, TX 75044 $294,900 2,238 sq. ft. 9,583 sq. ft. $132
2016-11-17 Single Family Contemporary/Modern; Mediterranean 5222 Lake Terrace Court Garland, TX 75043 $499,000 3,771 sq. ft. 5,227 sq. ft. $132
2016-11-16 Single Family 4913 Westlake Drive Garland, TX 75043 $305,540 2,267 sq. ft. 8,276 sq. ft. $135
2016-11-16 Single Family 5014 Hidden Creek Garland, TX 75043 $300,290 2,242 sq. ft. 8,276 sq. ft. $134
2016-11-14 Single Family Traditional 1229 Pecan Valley Drive Garland, TX 75043 $239,500 2,371 sq. ft. 10,019 sq. ft. $101
2016-11-12 Single Family Traditional 1109 Mill Spring Drive Garland, TX 75040 $219,900 2,446 sq. ft. 4,792 sq. ft. $90
2016-11-11 Single Family Traditional 917 Clack Drive Garland, TX 75044 $489,000 4,186 sq. ft. 8,712 sq. ft. $117
2016-11-08 Single Family Traditional 502 Fairway Lakes Drive Garland, TX 75044 $365,000 3,846 sq. ft. 21,780 sq. ft. $95
2016-11-08 Single Family Traditional 2414 Whispering Cove Circle Garland, TX 75044 $224,900 2,045 sq. ft. 6,970 sq. ft. $110
2016-11-07 Single Family 1525 Park Avenue Garland, TX 75042 $56,500 904 sq. ft. 7,841 sq. ft. $62
2016-11-05 Single Family Traditional 2614 Club Meadow Drive Garland, TX 75043 $224,900 2,391 sq. ft. 10,019 sq. ft. $94
2016-11-04 Single Family 2325 Newcastle Drive Garland, TX 75041 $195,900 1,738 sq. ft. 8,276 sq. ft. $113
2016-11-03 Single Family Traditional 1425 Waterford Place Garland, TX 75044 $310,000 2,865 sq. ft. 13,068 sq. ft. $108
2016-11-03 Single Family 829 Crockett Street Garland, TX 75040 $159,900 1,164 sq. ft. 7,841 sq. ft. $137
2016-10-29 Single Family Colonial 3318 Creekbend Drive Garland, TX 75044 $310,000 3,050 sq. ft. 7,405 sq. ft. $102
2016-10-28 Single Family Ranch 1202 Columbine Drive Garland, TX 75043 $145,000 1,955 sq. ft. 6,970 sq. ft. $74
2016-10-21 Single Family Traditional 6010 Ponderosa Trail Court Garland, TX 75043 $249,800 2,511 sq. ft. 9,148 sq. ft. $99
2016-10-21 Single Family 1734 Goliad Drive Garland, TX 75042 $221,900 1,972 sq. ft. 8,276 sq. ft. $113
2016-10-18 Single Family Traditional 1520 Alberbrook Drive Garland, TX 75040 $364,990 3,311 sq. ft. $110
2016-10-18 Single Family Traditional 517 Baltusrol Circle Garland, TX 75044 $270,000 2,100 sq. ft. 9,148 sq. ft. $129
2016-10-08 Single Family Traditional 1405 Sunscape Way Garland, TX 75043 $329,500 3,170 sq. ft. 10,019 sq. ft. $104
2016-10-07 Single Family 1229 Mcdonald Drive Garland, TX 75041 $79,988 1,260 sq. ft. 6,970 sq. ft. $63
2016-09-27 Single Family Traditional 2506 Breanna Way Garland, TX 75040 $314,900 3,660 sq. ft. 7,405 sq. ft. $86
2016-09-23 Single Family Traditional 3410 Glenbrook Drive Garland, TX 75041 $179,900 1,821 sq. ft. 23,087 sq. ft. $99
2016-09-22 Single Family Traditional 4218 Carrington Drive Garland, TX 75043 $199,500 1,843 sq. ft. 8,276 sq. ft. $108
2016-09-15 Single Family Traditional 1213 Pecan Valley Drive Garland, TX 75043 $259,900 2,427 sq. ft. 10,019 sq. ft. $107
2016-09-07 Single Family Traditional 7102 Don Gomez Lane Garland, TX 75043 $223,000 2,618 sq. ft. 9,583 sq. ft. $85
2016-08-29 Single Family 1910 Brookhill Drive Garland, TX 75043 $349,990 3,156 sq. ft. 4,792 sq. ft. $111
2016-08-26 Single Family Traditional 1438 Bay Shore Drive Garland, TX 75040 $125,000 1,034 sq. ft. 7,841 sq. ft. $121
2016-08-22 Single Family Traditional 1514 Alberbrook Drive Garland, TX 75040 $349,148 2,316 sq. ft. $151
2016-08-02 Single Family 1804 Angelina Drive Garland, TX 75040 $130,000 1,421 sq. ft. 6,970 sq. ft. $91
2016-07-27 Single Family 2422 Whispering Cove Circle Garland, TX 75044 $234,900 2,158 sq. ft. 6,970 sq. ft. $109
2016-07-21 Single Family Traditional 22 Dunrobin Garland, TX 75044 $1,150,000 7,510 sq. ft. 21,344 sq. ft. $153
2016-05-19 Single Family Traditional 1806 Blenheim Drive Garland, TX 75043 $449,888 3,558 sq. ft. 10,019 sq. ft. $126
2016-05-13 Single Family Traditional 4909 Walton Heath Drive Garland, TX 75044 $439,500 4,611 sq. ft. 10,454 sq. ft. $95
2016-04-21 Single Family Traditional 2817 Country Valley Road Garland, TX 75043 $750,000 9,241 sq. ft. 76,666 sq. ft. $81
2015-12-18 Single Family 5610 Vinewood Drive Garland, TX 75043 $179,000 1,958 sq. ft. 9,583 sq. ft. $91
2014-12-12 Single Family Traditional 2813 Lakewood Drive Garland, TX 75042 $129,900 1,476 sq. ft. $88